Espartinas, Spain
Current Conditions -  °F | °C
As of 12:00 AM on Friday 28 Nov 2014 (Local Time) from LEZL Reporting Station
Light Rain Light Rain  
Wind Chill: 55°   Ceiling: 4500
Heat Index: 55°   Visibility: 6mi
Dew Point: 54°   Wind: 10mph
Humidity: 94%   Direction: 160°SSE
Pressure: 29.23"   Gusts: NA
Location:  37.38°N, 6.13°W
Report Text: LEZL 272300Z 16009KT 130V200 9999 -RA FEW012 SCT030 BKN04513/12 Q0990 NOSIG
Loading
Personal Weather Stations






























Interactive Weather Map New forecast layout! Learn more

10-Day Weather Forecast

Advertisements
Track Severe Weather on mobile